createdAt,value
2023-03-05T00:00:38.572Z,2.79247
2023-03-05T00:05:40.311Z,2.04078
2023-03-05T00:10:42.101Z,1.53077
2023-03-05T00:15:43.807Z,1.58666
2023-03-05T00:20:45.447Z,1.41485
2023-03-05T00:25:47.221Z,2.13288
2023-03-05T00:30:48.879Z,2.39201
2023-03-05T00:35:50.633Z,2.1605
2023-03-05T00:40:52.227Z,1.6724
2023-03-05T00:45:53.967Z,1.46693
2023-03-05T00:50:55.558Z,1.47265
2023-03-05T00:55:57.291Z,1.78291
2023-03-05T01:00:58.933Z,1.14968
2023-03-05T01:06:00.651Z,0.89087
2023-03-05T01:11:02.482Z,1.07156
2023-03-05T01:16:04.151Z,1.12841
2023-03-05T01:21:05.964Z,1.36785
2023-03-05T01:26:07.610Z,1.44597
2023-03-05T01:31:09.294Z,0.97915
2023-03-05T01:36:10.970Z,1.26782
2023-03-05T01:41:12.565Z,1.1951
2023-03-05T01:46:14.096Z,0.83371
2023-03-05T01:51:15.781Z,-0.0126
2023-03-05T01:56:17.414Z,-0.04594
2023-03-05T02:01:19.119Z,-0.35239
2023-03-05T02:06:20.790Z,0.04107
2023-03-05T02:11:22.391Z,0.35133
2023-03-05T02:16:24.022Z,0.29988
2023-03-05T02:21:25.659Z,0.67302
2023-03-05T02:26:27.519Z,-0.34985
2023-03-05T02:31:29.209Z,-0.73664
2023-03-05T02:36:30.897Z,-0.83159
2023-03-05T02:41:32.543Z,0.11411
2023-03-05T02:46:34.187Z,-0.89161
2023-03-05T02:51:35.818Z,-1.24918
2023-03-05T02:56:37.426Z,-0.73473
2023-03-05T03:01:39.166Z,-0.67726
2023-03-05T03:06:40.932Z,-0.5696
2023-03-05T03:11:42.574Z,-0.78935
2023-03-05T03:16:44.462Z,-1.65216
2023-03-05T03:21:46.100Z,-0.61978
2023-03-05T03:26:47.755Z,-0.85763
2023-03-05T03:31:49.890Z,-1.85762
2023-03-05T03:36:51.545Z,-1.19107
2023-03-05T03:41:53.203Z,-0.80364
2023-03-05T03:46:54.805Z,-0.93892
2023-03-05T03:51:56.455Z,-1.64962
2023-03-05T03:56:58.198Z,-2.48574
2023-03-05T04:01:59.863Z,-2.50289
2023-03-05T04:07:01.432Z,-1.64613
2023-03-05T04:12:03.224Z,-1.4702
2023-03-05T04:17:04.903Z,-1.13073
2023-03-05T04:22:06.667Z,-1.42606
2023-03-05T04:27:08.296Z,-1.66232
2023-03-05T04:32:10.181Z,-1.53149
2023-03-05T04:37:11.837Z,-1.94177
2023-03-05T04:42:13.451Z,-2.50067
2023-03-05T04:47:15.085Z,-2.27457
2023-03-05T04:52:16.695Z,-1.4105
2023-03-05T04:57:18.456Z,-1.73441
2023-03-05T05:02:20.109Z,-1.31745
2023-03-05T05:07:21.790Z,-1.21869
2023-03-05T05:12:23.410Z,-1.19202
2023-03-05T05:17:25.109Z,-1.79792
2023-03-05T05:22:26.736Z,-2.62991
2023-03-05T05:27:28.453Z,-2.58196
2023-03-05T05:32:30.224Z,-2.95699
2023-03-05T05:37:31.908Z,-2.29521
2023-03-05T05:42:33.570Z,-1.95924
2023-03-05T05:47:35.176Z,-1.88429
2023-03-05T05:52:36.784Z,-2.09197
2023-03-05T05:57:38.489Z,-2.5502
2023-03-05T06:02:40.460Z,-1.84079
2023-03-05T06:07:42.074Z,-2.40318
2023-03-05T06:12:43.710Z,-1.35715
2023-03-05T06:17:45.308Z,-1.6566
2023-03-05T06:22:46.975Z,-1.86873
2023-03-05T06:27:48.570Z,-1.96971
2023-03-05T06:32:50.400Z,-2.561
2023-03-05T06:37:52.729Z,-2.48066
2023-03-05T06:42:54.352Z,-3.05416
2023-03-05T06:47:56.655Z,-2.6731
2023-03-05T06:52:58.287Z,-3.25358
2023-03-05T06:57:59.957Z,-3.2847
2023-03-05T07:03:01.603Z,-2.60101
2023-03-05T07:08:03.239Z,-2.43684
2023-03-05T07:13:04.947Z,-2.13484
2023-03-05T07:18:06.579Z,-2.70358
2023-03-05T07:23:08.351Z,-2.06022
2023-03-05T07:28:10.043Z,-2.83949
2023-03-05T07:33:11.763Z,-3.27295
2023-03-05T07:38:13.457Z,-2.51845
2023-03-05T07:43:15.068Z,-2.62864
2023-03-05T07:48:16.912Z,-2.92936
2023-03-05T07:53:18.500Z,-3.28788
2023-03-05T07:58:20.141Z,-3.07766
2023-03-05T08:03:21.783Z,-3.09703
2023-03-05T08:08:23.405Z,-2.77122
2023-03-05T08:13:25.086Z,-2.46065
2023-03-05T08:18:26.826Z,-2.56672
2023-03-05T08:23:28.958Z,-2.55941
2023-03-05T08:28:32.016Z,-2.54671
2023-03-05T08:33:35.480Z,-2.83695
2023-03-05T08:38:37.135Z,-2.64865
2023-03-05T08:43:38.902Z,-3.4276
2023-03-05T08:48:40.480Z,-3.23516
2023-03-05T08:53:42.297Z,-3.30947
2023-03-05T08:58:43.930Z,-3.14149
2023-03-05T09:03:45.568Z,-2.44922
2023-03-05T09:08:47.214Z,-2.35173
2023-03-05T09:13:49.030Z,-2.608
2023-03-05T09:18:50.838Z,-2.36856
2023-03-05T09:23:52.428Z,-2.34506
2023-03-05T09:28:54.114Z,-2.14723
2023-03-05T09:33:55.723Z,-2.51781
2023-03-05T09:38:57.478Z,-2.64229
2023-03-05T09:43:59.123Z,-2.4959
2023-03-05T09:49:00.960Z,-3.28978
2023-03-05T09:54:03.126Z,-2.81473
2023-03-05T09:59:04.936Z,-3.21897
2023-03-05T10:04:06.605Z,-2.83092
2023-03-05T10:09:08.250Z,-2.29457
2023-03-05T10:14:09.879Z,-2.9446
2023-03-05T10:19:11.760Z,-2.51337
2023-03-05T10:24:13.392Z,-3.30915
2023-03-05T10:29:15.032Z,-3.00907
2023-03-05T10:34:16.626Z,-2.8106
2023-03-05T10:39:18.286Z,-2.88141
2023-03-05T10:44:19.909Z,-2.44859
2023-03-05T10:49:21.806Z,-3.12942
2023-03-05T10:54:23.552Z,-3.03542
2023-03-05T10:59:25.445Z,-3.71149
2023-03-05T11:04:27.089Z,-3.6502
2023-03-05T11:09:28.733Z,-3.82358
2023-03-05T11:14:30.315Z,-2.92777
2023-03-05T11:19:31.955Z,-2.51019
2023-03-05T11:24:33.527Z,-2.51178
2023-03-05T11:29:35.225Z,-2.73438
2023-03-05T11:34:36.834Z,-3.06908
2023-03-05T11:39:38.475Z,-3.81945
2023-03-05T11:44:40.231Z,-3.03828
2023-03-05T11:49:41.830Z,-3.29296
2023-03-05T11:54:43.557Z,-2.89602
2023-03-05T11:59:45.293Z,-3.35297
2023-03-05T12:04:46.860Z,-3.07607
2023-03-05T12:09:48.863Z,-3.93091
2023-03-05T12:14:50.574Z,-4.39104
2023-03-05T12:19:52.171Z,-3.67719
2023-03-05T12:24:53.833Z,-3.12624
2023-03-05T12:29:55.798Z,-3.02272
2023-03-05T12:34:57.442Z,-3.07575
2023-03-05T12:39:59.063Z,-3.36091
2023-03-05T12:45:00.794Z,-3.19674
2023-03-05T12:50:02.436Z,-3.24183
2023-03-05T12:55:04.094Z,-2.97445
2023-03-05T13:00:05.790Z,-3.38092
2023-03-05T13:05:07.377Z,-3.85153
2023-03-05T13:10:09.073Z,-3.79437
2023-03-05T13:15:10.762Z,-3.67116
2023-03-05T13:20:12.569Z,-4.61142
2023-03-05T13:25:14.154Z,-3.81501
2023-03-05T13:30:15.827Z,-3.79151
2023-03-05T13:35:17.505Z,-3.10624
2023-03-05T13:40:19.165Z,-3.60511
2023-03-05T13:45:20.883Z,-4.38405
2023-03-05T13:50:22.501Z,-4.41867
2023-03-05T13:55:24.103Z,-3.51048
2023-03-05T14:00:25.771Z,-3.86772
2023-03-05T14:05:27.630Z,-3.37362
2023-03-05T14:10:29.324Z,-3.37266
2023-03-05T14:15:31.044Z,-2.89316
2023-03-05T14:20:32.761Z,-3.06877
2023-03-05T14:25:34.367Z,-2.90173
2023-03-05T14:30:36.207Z,-3.28978
2023-03-05T14:35:38.189Z,-2.70866
2023-03-05T14:40:39.833Z,-2.89348
2023-03-05T14:45:41.620Z,-3.07702
2023-03-05T14:50:43.257Z,-2.80742
2023-03-05T14:55:44.856Z,-2.35777
2023-03-05T15:00:46.646Z,-3.03384
2023-03-05T15:05:48.396Z,-2.91888
2023-03-05T15:10:50.089Z,-2.81949
2023-03-05T15:15:51.846Z,-2.49463
2023-03-05T15:20:53.553Z,-2.15517
2023-03-05T15:25:55.168Z,-2.79694
2023-03-05T15:30:58.254Z,-2.2806
2023-03-05T15:36:01.996Z,-1.76648
2023-03-05T15:41:03.634Z,-1.66486
2023-03-05T15:46:05.451Z,-1.77728
2023-03-05T15:51:07.185Z,-2.31839
2023-03-05T15:56:08.808Z,-2.0164
2023-03-05T16:01:10.646Z,-1.87731
2023-03-05T16:06:12.277Z,-1.51243
2023-03-05T16:11:13.896Z,-1.73441
2023-03-05T16:16:15.872Z,-1.22631
2023-03-05T16:21:17.575Z,-1.38128
2023-03-05T16:26:19.178Z,-1.18884
2023-03-05T16:31:20.954Z,-1.1085
2023-03-05T16:36:22.612Z,-1.38573
2023-03-05T16:41:24.528Z,-1.27046
2023-03-05T16:46:26.408Z,-0.74553
2023-03-05T16:51:28.062Z,-0.60803
2023-03-05T16:56:29.842Z,-0.60835
2023-03-05T17:01:31.593Z,-0.40098
2023-03-05T17:06:33.186Z,-1.36636
2023-03-05T17:11:34.847Z,-1.25172
2023-03-05T17:16:36.575Z,-1.28887
2023-03-05T17:21:40.043Z,-0.35779
2023-03-05T17:26:43.094Z,-0.78586
2023-03-05T17:31:44.835Z,-0.9113
2023-03-05T17:36:46.440Z,-0.1736
2023-03-05T17:41:48.129Z,0.23478
2023-03-05T17:46:49.858Z,-1.17582
2023-03-05T17:51:51.488Z,-0.09961
2023-03-05T17:56:53.239Z,-0.70044
2023-03-05T18:01:55.220Z,-1.199
2023-03-05T18:06:56.850Z,-0.91543
2023-03-05T18:11:58.611Z,-0.98688
2023-03-05T18:17:00.278Z,0.29067
2023-03-05T18:22:02.209Z,-0.47052
2023-03-05T18:27:03.815Z,0.98487
2023-03-05T18:32:05.580Z,1.01504
2023-03-05T18:37:07.217Z,0.58124
2023-03-05T18:42:09.874Z,1.06902
2023-03-05T18:47:11.460Z,1.35579
2023-03-05T18:52:13.023Z,0.89246
2023-03-05T18:57:14.717Z,0.48439
2023-03-05T19:02:16.455Z,-0.0018
2023-03-05T19:07:18.132Z,-0.51181
2023-03-05T19:12:19.991Z,-0.33207
2023-03-05T19:17:21.615Z,0.00518
2023-03-05T19:22:23.251Z,0.61078
2023-03-05T19:27:24.756Z,0.01026
2023-03-05T19:32:26.542Z,0.50598
2023-03-05T19:37:28.210Z,0.36466
2023-03-05T19:42:29.948Z,-0.1012
2023-03-05T19:47:31.623Z,0.1338
2023-03-05T19:52:33.251Z,-0.23394
2023-03-05T19:57:34.843Z,0.00455
2023-03-05T20:02:36.693Z,0.30147
2023-03-05T20:07:38.411Z,1.39326
2023-03-05T20:12:40.078Z,0.99185
2023-03-05T20:17:41.797Z,1.2567
2023-03-05T20:22:43.418Z,0.78194
2023-03-05T20:27:45.021Z,0.7559
2023-03-05T20:32:46.700Z,1.43549
2023-03-05T20:37:48.339Z,1.03123
2023-03-05T20:42:49.982Z,2.25101
2023-03-05T20:47:51.678Z,2.08206
2023-03-05T20:52:53.258Z,2.60383
2023-03-05T20:57:54.890Z,1.42343
2023-03-05T21:02:56.607Z,-0.37557
2023-03-05T21:07:58.323Z,0.42818
2023-03-05T21:13:00.976Z,0.45739
2023-03-05T21:18:02.948Z,0.45231
2023-03-05T21:23:04.592Z,0.18842
2023-03-05T21:28:06.169Z,1.39389
2023-03-05T21:33:07.851Z,-0.52419
2023-03-05T21:38:09.481Z,-0.10279
2023-03-05T21:43:11.112Z,-0.38224
2023-03-05T21:48:12.900Z,-0.61279
2023-03-05T21:53:14.501Z,-0.84493
2023-03-05T21:58:16.154Z,-0.78904
2023-03-05T22:03:17.881Z,-0.19012
2023-03-05T22:08:19.483Z,0.26209
2023-03-05T22:13:21.113Z,0.17254
2023-03-05T22:18:22.745Z,0.47613
2023-03-05T22:23:24.411Z,0.92929
2023-03-05T22:28:26.033Z,0.42278
2023-03-05T22:33:27.732Z,-1.04181
2023-03-05T22:38:29.314Z,-1.29141
2023-03-05T22:43:30.974Z,-1.22187
2023-03-05T22:48:32.712Z,-0.48196
2023-03-05T22:53:34.494Z,-1.39144
2023-03-05T22:58:36.182Z,-1.27173
2023-03-05T23:03:38.035Z,-1.51053
2023-03-05T23:08:39.689Z,-0.98751
2023-03-05T23:13:41.518Z,-0.84048
2023-03-05T23:18:43.215Z,-0.6871
2023-03-05T23:23:44.843Z,-0.87541
2023-03-05T23:28:46.419Z,-0.89637
2023-03-05T23:33:48.287Z,-0.90018
2023-03-05T23:38:49.891Z,-0.75919
2023-03-05T23:43:51.482Z,-0.09802
2023-03-05T23:48:53.231Z,-0.56579
2023-03-05T23:53:55.204Z,-0.71155
2023-03-05T23:58:56.811Z,-0.12375
